createdAt,value
2018-04-27T00:00:51.544Z,100779.61
2018-04-27T00:01:54.177Z,100781.39
2018-04-27T00:02:56.743Z,100783.17
2018-04-27T00:03:59.284Z,100778.23
2018-04-27T00:05:01.867Z,100776.87
2018-04-27T00:06:04.443Z,100777.43
2018-04-27T00:07:07.021Z,100779.37
2018-04-27T00:08:09.593Z,100779.94
2018-04-27T00:09:12.350Z,100788.18
2018-04-27T00:10:14.927Z,100782.81
2018-04-27T00:11:17.481Z,100781.03
2018-04-27T00:12:20.113Z,100784.50
2018-04-27T00:13:22.795Z,100779.73
2018-04-27T00:14:25.335Z,100787.58
2018-04-27T00:15:27.957Z,100778.92
2018-04-27T00:16:30.511Z,100787.48
2018-04-27T00:17:33.137Z,100781.58
2018-04-27T00:18:35.693Z,100777.45
2018-04-27T00:19:38.280Z,100780.13
2018-04-27T00:20:40.851Z,100780.69
2018-04-27T00:21:43.406Z,100776.16
2018-04-27T00:22:45.977Z,100776.31
2018-04-27T00:23:48.545Z,100774.13
2018-04-27T00:24:51.101Z,100776.88
2018-04-27T00:25:53.666Z,100773.08
2018-04-27T00:26:56.208Z,100771.70
2018-04-27T00:27:58.747Z,100773.64
2018-04-27T00:29:01.299Z,100771.45
2018-04-27T00:30:03.837Z,100775.98
2018-04-27T00:31:06.518Z,100766.92
2018-04-27T00:32:09.164Z,100765.30
2018-04-27T00:33:11.832Z,100769.42
2018-04-27T00:34:14.494Z,100766.84
2018-04-27T00:35:17.067Z,100766.03
2018-04-27T00:36:19.652Z,100763.28
2018-04-27T00:37:22.206Z,100768.22
2018-04-27T00:38:24.748Z,100758.34
2018-04-27T00:39:27.307Z,100762.03
2018-04-27T00:40:29.971Z,100763.84
2018-04-27T00:41:32.612Z,100758.75
2018-04-27T00:42:35.167Z,100764.66
2018-04-27T00:43:37.715Z,100760.13
2018-04-27T00:44:40.268Z,100764.66
2018-04-27T00:45:42.862Z,100761.91
2018-04-27T00:46:45.416Z,100761.50
2018-04-27T00:47:47.974Z,100756.00
2018-04-27T00:48:50.526Z,100755.16
2018-04-27T00:49:53.113Z,100759.29
2018-04-27T00:50:55.673Z,100750.64
2018-04-27T00:51:58.321Z,100749.42
2018-04-27T00:53:12.621Z,100752.58
2018-04-27T00:54:15.175Z,100756.30
2018-04-27T00:55:17.742Z,100753.14
2018-04-27T00:56:20.304Z,100748.61
2018-04-27T00:57:22.911Z,100747.39
2018-04-27T00:58:25.462Z,100744.65
2018-04-27T00:59:28.008Z,100742.87
2018-04-27T01:00:30.556Z,100746.42
2018-04-27T01:01:33.131Z,100748.93
2018-04-27T01:02:35.697Z,100740.94
2018-04-27T01:03:38.265Z,100739.72
2018-04-27T01:04:40.818Z,100740.52
2018-04-27T01:05:43.477Z,100738.34
2018-04-27T01:06:46.025Z,100735.03
2018-04-27T01:07:48.595Z,100740.94
2018-04-27T01:08:51.177Z,100740.28
2018-04-27T01:09:53.790Z,100741.66
2018-04-27T01:10:56.384Z,100744.97
2018-04-27T01:11:58.957Z,100750.30
2018-04-27T01:13:01.520Z,100744.16
2018-04-27T01:14:04.179Z,100745.13
2018-04-27T01:15:06.847Z,100748.84
2018-04-27T01:16:09.400Z,100752.72
2018-04-27T01:17:11.954Z,100742.70
2018-04-27T01:18:14.522Z,100743.66
2018-04-27T01:19:17.189Z,100738.33
2018-04-27T01:20:19.745Z,100741.08
2018-04-27T01:21:22.329Z,100734.36
2018-04-27T01:22:24.882Z,100735.73
2018-04-27T01:23:27.518Z,100736.30
2018-04-27T01:24:30.070Z,100735.09
2018-04-27T01:25:32.649Z,100731.53
2018-04-27T01:26:35.210Z,100733.71
2018-04-27T01:27:37.781Z,100730.56
2018-04-27T01:28:40.329Z,100735.25
2018-04-27T01:29:42.883Z,100725.95
2018-04-27T01:30:45.553Z,100723.04
2018-04-27T01:31:48.092Z,100730.06
2018-04-27T01:32:50.646Z,100725.54
2018-04-27T01:33:53.213Z,100722.39
2018-04-27T01:34:55.772Z,100726.52
2018-04-27T01:35:58.361Z,100724.73
2018-04-27T01:37:00.921Z,100727.64
2018-04-27T01:38:03.466Z,100719.96
2018-04-27T01:39:06.020Z,100725.86
2018-04-27T01:40:08.604Z,100723.67
2018-04-27T01:41:11.159Z,100728.20
2018-04-27T01:42:13.816Z,100725.45
2018-04-27T01:43:16.368Z,100726.58
2018-04-27T01:44:18.942Z,100720.25
2018-04-27T01:45:21.500Z,100721.22
2018-04-27T01:46:24.056Z,100718.47
2018-04-27T01:47:26.695Z,100720.25
2018-04-27T01:48:29.247Z,100713.25
2018-04-27T01:49:31.806Z,100716.24
2018-04-27T01:50:34.379Z,100716.64
2018-04-27T01:51:36.925Z,100715.52
2018-04-27T01:52:39.482Z,100716.73
2018-04-27T01:53:42.020Z,100715.85
2018-04-27T01:54:44.642Z,100708.58
2018-04-27T01:55:47.198Z,100710.20
2018-04-27T01:56:49.756Z,100717.47
2018-04-27T01:57:52.303Z,100707.70
2018-04-27T01:58:54.863Z,100704.78
2018-04-27T01:59:57.412Z,100711.09
2018-04-27T02:00:59.982Z,100706.56
2018-04-27T02:02:02.542Z,100704.06
2018-04-27T02:03:05.093Z,100701.48
2018-04-27T02:04:07.636Z,100702.28
2018-04-27T02:05:10.228Z,100702.28
2018-04-27T02:06:12.798Z,100705.44
2018-04-27T02:07:15.344Z,100707.22
2018-04-27T02:08:17.990Z,100703.09
2018-04-27T02:09:20.532Z,100709.97
2018-04-27T02:10:23.076Z,100705.44
2018-04-27T02:11:25.600Z,100707.38
2018-04-27T02:12:28.105Z,100704.06
2018-04-27T02:13:30.591Z,100700.50
2018-04-27T02:14:33.074Z,100698.16
2018-04-27T02:15:35.565Z,100695.01
2018-04-27T02:16:38.049Z,100697.20
2018-04-27T02:17:40.568Z,100693.48
2018-04-27T02:18:43.041Z,100697.20
2018-04-27T02:19:45.541Z,100690.48
2018-04-27T02:20:48.031Z,100695.41
2018-04-27T02:21:50.502Z,100689.11
2018-04-27T02:22:53.021Z,100691.05
2018-04-27T02:23:55.535Z,100694.20
2018-04-27T02:24:58.067Z,100689.11
2018-04-27T02:26:00.564Z,100694.45
2018-04-27T02:27:03.035Z,100690.64
2018-04-27T02:28:05.517Z,100690.64
2018-04-27T02:29:08.022Z,100691.05
2018-04-27T02:30:10.505Z,100687.73
2018-04-27T02:31:12.974Z,100693.80
2018-04-27T02:32:15.447Z,100693.39
2018-04-27T02:33:17.914Z,100694.36
2018-04-27T02:34:20.431Z,100700.42
2018-04-27T02:35:22.945Z,100691.37
2018-04-27T02:36:25.506Z,100694.52
2018-04-27T02:37:28.066Z,100690.56
2018-04-27T02:38:30.577Z,100694.44
2018-04-27T02:39:33.154Z,100695.72
2018-04-27T02:40:35.645Z,100693.13
2018-04-27T02:41:38.148Z,100692.33
2018-04-27T02:42:40.639Z,100694.67
2018-04-27T02:43:43.144Z,100689.73
2018-04-27T02:44:45.615Z,100685.77
2018-04-27T02:45:48.090Z,100681.78
2018-04-27T02:46:50.562Z,100684.13
2018-04-27T02:47:53.057Z,100676.45
2018-04-27T02:48:55.584Z,100678.38
2018-04-27T02:49:58.068Z,100683.06
2018-04-27T02:51:00.559Z,100681.86
2018-04-27T02:52:03.055Z,100684.20
2018-04-27T02:53:05.592Z,100685.57
2018-04-27T02:54:08.202Z,100680.48
2018-04-27T02:55:10.726Z,100675.14
2018-04-27T02:56:13.227Z,100672.39
2018-04-27T02:57:15.785Z,100671.59
2018-04-27T02:58:18.345Z,100669.81
2018-04-27T02:59:20.833Z,100676.67
2018-04-27T03:00:23.310Z,100672.31
2018-04-27T03:01:25.802Z,100672.88
2018-04-27T03:02:28.275Z,100672.47
2018-04-27T03:03:30.762Z,100673.84
2018-04-27T03:04:33.267Z,100667.95
2018-04-27T03:05:35.762Z,100668.91
2018-04-27T03:06:38.235Z,100661.39
2018-04-27T03:07:40.717Z,100670.45
2018-04-27T03:08:43.222Z,100666.89
2018-04-27T03:09:45.725Z,100667.45
2018-04-27T03:10:48.212Z,100669.39
2018-04-27T03:11:50.704Z,100664.86
2018-04-27T03:12:53.193Z,100661.15
2018-04-27T03:13:55.702Z,100665.99
2018-04-27T03:14:58.216Z,100663.66
2018-04-27T03:16:00.692Z,100660.91
2018-04-27T03:17:03.177Z,100660.91
2018-04-27T03:18:05.684Z,100658.72
2018-04-27T03:19:08.197Z,100660.09
2018-04-27T03:20:10.661Z,100656.53
2018-04-27T03:21:13.134Z,100660.78
2018-04-27T03:22:15.620Z,100659.41
2018-04-27T03:23:18.112Z,100655.86
2018-04-27T03:24:20.613Z,100658.20
2018-04-27T03:25:23.100Z,100655.05
2018-04-27T03:26:25.571Z,100657.80
2018-04-27T03:27:28.044Z,100656.27
2018-04-27T03:28:30.544Z,100655.05
2018-04-27T03:29:33.104Z,100654.64
2018-04-27T03:30:35.579Z,100651.48
2018-04-27T03:31:38.122Z,100651.09
2018-04-27T03:32:40.680Z,100655.05
2018-04-27T03:33:43.173Z,100651.89
2018-04-27T03:34:45.677Z,100645.59
2018-04-27T03:35:48.177Z,100646.00
2018-04-27T03:36:50.654Z,100646.97
2018-04-27T03:37:53.242Z,100643.81
2018-04-27T03:38:55.726Z,100644.37
2018-04-27T03:39:58.232Z,100644.37
2018-04-27T03:41:00.716Z,100635.33
2018-04-27T03:42:03.285Z,100640.39
2018-04-27T03:43:05.872Z,100634.36
2018-04-27T03:44:08.379Z,100638.08
2018-04-27T03:45:10.971Z,100636.27
2018-04-27T03:46:13.457Z,100631.34
2018-04-27T03:47:15.934Z,100631.73
2018-04-27T03:48:18.420Z,100626.81
2018-04-27T03:49:20.905Z,100623.66
2018-04-27T03:50:23.412Z,100630.13
2018-04-27T03:51:25.897Z,100622.45
2018-04-27T03:52:28.402Z,100619.30
2018-04-27T03:53:31.065Z,100618.33
2018-04-27T03:54:33.544Z,100615.73
2018-04-27T03:55:36.076Z,100620.27
2018-04-27T03:56:38.561Z,100617.67
2018-04-27T03:57:41.035Z,100618.48
2018-04-27T03:58:43.719Z,100619.86
2018-04-27T03:59:57.897Z,100615.90
2018-04-27T04:01:12.094Z,100615.49
2018-04-27T04:02:26.498Z,100613.72
2018-04-27T04:03:40.737Z,100617.03
2018-04-27T04:04:54.974Z,100617.43
2018-04-27T04:05:57.473Z,100616.63
2018-04-27T04:06:59.956Z,100616.63
2018-04-27T04:08:02.499Z,100614.84
2018-04-27T04:09:05.056Z,100610.88
2018-04-27T04:10:07.541Z,100610.31
2018-04-27T04:11:10.076Z,100609.91
2018-04-27T04:12:12.564Z,100611.45
2018-04-27T04:13:15.050Z,100607.89
2018-04-27T04:14:17.546Z,100615.16
2018-04-27T04:15:20.047Z,100612.41
2018-04-27T04:16:22.552Z,100606.52
2018-04-27T04:17:25.019Z,100607.48
2018-04-27T04:18:27.505Z,100608.45
2018-04-27T04:19:29.996Z,100605.30
2018-04-27T04:20:32.470Z,100608.61
2018-04-27T04:21:34.991Z,100602.56
2018-04-27T04:22:37.477Z,100607.81
2018-04-27T04:23:39.954Z,100607.81
2018-04-27T04:24:42.468Z,100610.55
2018-04-27T04:25:44.957Z,100598.76
2018-04-27T04:26:47.478Z,100604.66
2018-04-27T04:27:49.972Z,100602.63
2018-04-27T04:28:52.461Z,100597.95
2018-04-27T04:29:54.953Z,100599.88
2018-04-27T04:30:57.440Z,100602.63
2018-04-27T04:31:59.934Z,100596.89
2018-04-27T04:33:02.422Z,100598.42
2018-04-27T04:34:04.923Z,100592.77
2018-04-27T04:35:07.402Z,100596.65
2018-04-27T04:36:09.904Z,100596.25
2018-04-27T04:37:12.394Z,100595.44
2018-04-27T04:38:15.068Z,100589.13
2018-04-27T04:39:17.509Z,100585.58
2018-04-27T04:40:20.121Z,100584.36
2018-04-27T04:41:22.631Z,100585.73
2018-04-27T04:42:25.123Z,100578.47
2018-04-27T04:43:27.634Z,100580.38
2018-04-27T04:44:30.240Z,100579.41
2018-04-27T04:45:32.733Z,100577.62
2018-04-27T04:46:35.221Z,100573.67
2018-04-27T04:47:37.716Z,100573.67
2018-04-27T04:48:40.299Z,100578.92
2018-04-27T04:49:42.799Z,100572.05
2018-04-27T04:50:45.315Z,100566.16
2018-04-27T04:51:47.870Z,100571.08
2018-04-27T04:52:50.384Z,100572.62
2018-04-27T04:53:52.869Z,100569.46
2018-04-27T04:54:55.381Z,100571.80
2018-04-27T04:55:57.866Z,100568.25
2018-04-27T04:57:00.361Z,100570.03
2018-04-27T04:58:02.847Z,100568.25
2018-04-27T04:59:05.383Z,100563.33
2018-04-27T05:00:07.890Z,100561.95
2018-04-27T05:01:10.379Z,100560.58
2018-04-27T05:02:12.961Z,100560.33
2018-04-27T05:03:15.520Z,100558.39
2018-04-27T05:04:18.027Z,100564.86
2018-04-27T05:05:20.543Z,100568.01
2018-04-27T05:06:23.099Z,100568.98
2018-04-27T05:07:25.601Z,100566.23
2018-04-27T05:08:28.113Z,100575.84
2018-04-27T05:09:30.582Z,100578.18
2018-04-27T05:10:33.067Z,100565.26
2018-04-27T05:11:35.599Z,100574.06
2018-04-27T05:12:38.103Z,100573.91
2018-04-27T05:13:40.599Z,100572.53
2018-04-27T05:14:43.089Z,100564.29
2018-04-27T05:15:45.595Z,100562.92
2018-04-27T05:16:48.106Z,100566.63
2018-04-27T05:17:50.600Z,100568.81
2018-04-27T05:18:53.143Z,100563.33
2018-04-27T05:19:55.154Z,100572.53
2018-04-27T05:20:57.714Z,100565.83
2018-04-27T05:22:00.275Z,100565.02
2018-04-27T05:23:02.832Z,100561.70
2018-04-27T05:24:05.390Z,100561.30
2018-04-27T05:25:07.880Z,100563.08
2018-04-27T05:26:10.370Z,100559.77
2018-04-27T05:27:12.862Z,100564.29
2018-04-27T05:28:15.364Z,100557.83
2018-04-27T05:29:17.881Z,100560.73
2018-04-27T05:30:20.367Z,100559.77
2018-04-27T05:31:25.363Z,100564.86
2018-04-27T05:32:27.897Z,100558.23
2018-04-27T05:33:30.485Z,100571.56
2018-04-27T05:34:32.984Z,100562.92
2018-04-27T05:35:35.549Z,100566.06
2018-04-27T05:36:38.046Z,100568.81
2018-04-27T05:37:40.537Z,100564.86
2018-04-27T05:38:43.021Z,100562.92
2018-04-27T05:39:55.341Z,100568.01
2018-04-27T05:40:57.924Z,100559.77
2018-04-27T05:42:00.407Z,100561.30
2018-04-27T05:43:02.883Z,100555.41
2018-04-27T05:44:05.365Z,100562.11
2018-04-27T05:45:07.858Z,100554.19
2018-04-27T05:46:10.337Z,100560.49
2018-04-27T05:47:12.819Z,100553.79
2018-04-27T05:48:15.427Z,100555.16
2018-04-27T05:49:17.890Z,100558.31
2018-04-27T05:50:20.437Z,100557.91
2018-04-27T05:51:22.948Z,100563.55
2018-04-27T05:52:25.455Z,100562.84
2018-04-27T05:53:27.926Z,100558.15
2018-04-27T05:54:30.427Z,100561.70
2018-04-27T05:55:33.002Z,100553.71
2018-04-27T05:56:35.504Z,100553.71
2018-04-27T05:57:37.998Z,100553.48
2018-04-27T05:58:40.521Z,100559.37
2018-04-27T05:59:43.081Z,100553.27
2018-04-27T06:00:45.599Z,100559.01
2018-04-27T06:01:48.111Z,100553.20
2018-04-27T06:02:50.609Z,100547.14
2018-04-27T06:04:04.793Z,100548.27
2018-04-27T06:05:07.297Z,100550.77
2018-04-27T06:06:09.786Z,100547.53
2018-04-27T06:07:12.269Z,100548.10
2018-04-27T06:08:14.810Z,100540.72
2018-04-27T06:09:17.301Z,100543.38
2018-04-27T06:10:19.985Z,100543.86
2018-04-27T06:11:22.521Z,100547.33
2018-04-27T06:12:25.031Z,100544.34
2018-04-27T06:13:27.526Z,100544.90
2018-04-27T06:14:30.030Z,100541.91
2018-04-27T06:15:32.521Z,100546.44
2018-04-27T06:16:35.027Z,100546.75
2018-04-27T06:17:37.513Z,100549.66
2018-04-27T06:18:40.122Z,100547.48
2018-04-27T06:19:42.591Z,100540.53
2018-04-27T06:20:45.059Z,100544.24
2018-04-27T06:21:47.579Z,100543.43
2018-04-27T06:22:50.064Z,100544.80
2018-04-27T06:23:52.570Z,100539.88
2018-04-27T06:24:55.058Z,100541.38
2018-04-27T06:25:57.564Z,100539.03
2018-04-27T06:27:00.081Z,100537.42
2018-04-27T06:28:02.560Z,100536.20
2018-04-27T06:29:05.068Z,100540.33
2018-04-27T06:30:07.559Z,100535.40
2018-04-27T06:31:10.039Z,100530.47
2018-04-27T06:32:12.540Z,100533.22
2018-04-27T06:33:15.025Z,100529.27
2018-04-27T06:34:17.535Z,100531.03
2018-04-27T06:35:20.010Z,100526.52
2018-04-27T06:36:22.493Z,100528.05
2018-04-27T06:37:25.020Z,100523.36
2018-04-27T06:38:27.545Z,100530.80
2018-04-27T06:39:30.033Z,100523.52
2018-04-27T06:40:32.512Z,100517.63
2018-04-27T06:41:35.010Z,100518.59
2018-04-27T06:42:37.517Z,100515.05
2018-04-27T06:43:39.988Z,100516.25
2018-04-27T06:44:42.462Z,100516.41
2018-04-27T06:45:44.964Z,100514.48
2018-04-27T06:46:47.449Z,100510.36
2018-04-27T06:47:49.995Z,100510.92
2018-04-27T06:48:52.469Z,100504.47
2018-04-27T06:49:54.960Z,100507.61
2018-04-27T06:50:57.467Z,100508.18
2018-04-27T06:51:59.959Z,100505.59
2018-04-27T06:53:02.464Z,100506.00
2018-04-27T06:54:04.967Z,100508.34
2018-04-27T06:55:07.494Z,100505.59
2018-04-27T06:56:10.001Z,100509.71
2018-04-27T06:57:12.507Z,100503.81
2018-04-27T06:58:15.013Z,100507.38
2018-04-27T06:59:17.630Z,100504.38
2018-04-27T07:00:20.093Z,100501.64
2018-04-27T07:01:22.582Z,100504.95
2018-04-27T07:02:25.072Z,100499.45
2018-04-27T07:03:27.568Z,100504.78
2018-04-27T07:04:30.052Z,100499.45
2018-04-27T07:05:32.558Z,100501.80
2018-04-27T07:06:35.026Z,100503.57
2018-04-27T07:07:37.578Z,100504.55
2018-04-27T07:08:40.136Z,100503.57
2018-04-27T07:09:42.621Z,100501.80
2018-04-27T07:10:45.127Z,100500.83
2018-04-27T07:11:47.631Z,100499.45
2018-04-27T07:12:50.102Z,100504.14
2018-04-27T07:13:52.631Z,100497.84
2018-04-27T07:14:55.122Z,100498.65
2018-04-27T07:15:57.620Z,100495.50
2018-04-27T07:17:00.202Z,100493.72
2018-04-27T07:18:02.616Z,100489.04
2018-04-27T07:19:05.376Z,100489.60
2018-04-27T07:20:07.847Z,100482.34
2018-04-27T07:21:10.347Z,100487.67
2018-04-27T07:22:12.822Z,100485.08
2018-04-27T07:23:15.319Z,100485.08
2018-04-27T07:24:17.806Z,100482.91
2018-04-27T07:25:20.282Z,100478.22
2018-04-27T07:26:22.763Z,100481.93
2018-04-27T07:27:25.271Z,100477.41
2018-04-27T07:28:27.760Z,100482.50
2018-04-27T07:29:30.247Z,100479.19
2018-04-27T07:30:32.737Z,100477.01
2018-04-27T07:31:35.228Z,100472.08
2018-04-27T07:32:37.713Z,100472.08
2018-04-27T07:33:40.210Z,100461.50
2018-04-27T07:34:42.717Z,100459.33
2018-04-27T07:35:45.208Z,100464.41
2018-04-27T07:36:47.678Z,100465.38
2018-04-27T07:37:50.152Z,100463.44
2018-04-27T07:38:52.655Z,100467.96
2018-04-27T07:39:55.171Z,100466.59
2018-04-27T07:40:57.644Z,100469.90
2018-04-27T07:42:00.146Z,100465.78
2018-04-27T07:43:02.672Z,100476.77
2018-04-27T07:44:05.191Z,100476.77
2018-04-27T07:45:07.683Z,100473.05
2018-04-27T07:46:10.226Z,100474.98
2018-04-27T07:47:12.710Z,100471.67
2018-04-27T07:48:15.182Z,100474.02
2018-04-27T07:49:17.757Z,100464.25
2018-04-27T07:50:20.268Z,100465.78
2018-04-27T07:51:22.738Z,100469.90
2018-04-27T07:52:25.245Z,100464.97
2018-04-27T07:53:27.733Z,100465.78
2018-04-27T07:54:30.259Z,100464.25
2018-04-27T07:55:32.764Z,100458.36
2018-04-27T07:56:35.268Z,100458.36
2018-04-27T07:57:37.757Z,100466.03
2018-04-27T07:58:40.245Z,100464.25
2018-04-27T07:59:42.727Z,100458.36
2018-04-27T08:00:45.218Z,100452.70
2018-04-27T08:01:47.701Z,100448.19
2018-04-27T08:02:50.206Z,100450.36
2018-04-27T08:03:52.696Z,100454.08
2018-04-27T08:04:55.200Z,100451.17
2018-04-27T08:05:57.722Z,100451.58
2018-04-27T08:07:00.221Z,100452.38
2018-04-27T08:08:02.721Z,100452.79
2018-04-27T08:09:06.766Z,100454.56
2018-04-27T08:10:09.271Z,100454.97
2018-04-27T08:11:11.777Z,100452.62
2018-04-27T08:12:14.261Z,100449.48
2018-04-27T08:13:16.746Z,100445.77
2018-04-27T08:14:19.240Z,100447.95
2018-04-27T08:15:21.743Z,100440.27
2018-04-27T08:16:24.236Z,100450.28
2018-04-27T08:17:26.724Z,100439.30
2018-04-27T08:18:29.222Z,100445.61
2018-04-27T08:19:31.708Z,100442.45
2018-04-27T08:20:34.200Z,100440.52
2018-04-27T08:21:36.783Z,100436.80
2018-04-27T08:22:39.287Z,100445.04
2018-04-27T08:23:41.770Z,100443.27
2018-04-27T08:24:44.262Z,100445.84
2018-04-27T08:25:46.792Z,100443.50
2018-04-27T08:26:49.294Z,100442.94
2018-04-27T08:27:55.263Z,100441.16
2018-04-27T08:29:03.169Z,100440.77
2018-04-27T08:30:05.655Z,100442.54
2018-04-27T08:31:08.184Z,100438.42
2018-04-27T08:32:10.720Z,100435.11
2018-04-27T08:33:13.192Z,100436.08
2018-04-27T08:34:15.800Z,100434.70
2018-04-27T08:35:18.358Z,100437.85
2018-04-27T08:36:20.844Z,100430.42
2018-04-27T08:37:23.377Z,100426.87
2018-04-27T08:38:25.916Z,100434.70
2018-04-27T08:39:28.431Z,100432.93
2018-04-27T08:40:30.919Z,100431.39
2018-04-27T08:41:33.423Z,100424.53
2018-04-27T08:42:35.911Z,100428.65
2018-04-27T08:43:38.398Z,100425.34
2018-04-27T08:44:40.890Z,100429.63
2018-04-27T08:45:43.369Z,100427.69
2018-04-27T08:46:45.857Z,100425.50
2018-04-27T08:47:48.359Z,100424.94
2018-04-27T08:48:50.834Z,100422.19
2018-04-27T08:49:53.385Z,100424.13
2018-04-27T08:50:57.777Z,100420.82
2018-04-27T08:52:00.250Z,100414.60
2018-04-27T08:53:02.760Z,100420.09
2018-04-27T08:54:05.277Z,100420.91
2018-04-27T08:55:07.751Z,100414.60
2018-04-27T08:56:10.256Z,100420.91
2018-04-27T08:57:12.737Z,100417.19
2018-04-27T08:58:15.247Z,100412.10
2018-04-27T08:59:17.760Z,100412.91
2018-04-27T09:00:20.243Z,100415.09
2018-04-27T09:01:22.772Z,100407.82
2018-04-27T09:02:25.336Z,100406.72
2018-04-27T09:03:27.945Z,100412.21
2018-04-27T09:04:30.452Z,100404.38
2018-04-27T09:05:32.941Z,100406.97
2018-04-27T09:06:35.429Z,100400.91
2018-04-27T09:07:37.939Z,100401.72
2018-04-27T09:08:40.464Z,100396.22
2018-04-27T09:09:42.956Z,100395.42
2018-04-27T09:10:45.445Z,100395.02
2018-04-27T09:11:47.926Z,100387.58
2018-04-27T09:12:50.422Z,100396.22
2018-04-27T09:13:52.902Z,100385.80
2018-04-27T09:14:55.389Z,100392.11
2018-04-27T09:15:57.888Z,100382.50
2018-04-27T09:17:00.373Z,100380.72
2018-04-27T09:18:02.875Z,100382.50
2018-04-27T09:19:05.831Z,100380.16
2018-04-27T09:20:08.319Z,100380.96
2018-04-27T09:21:10.823Z,100375.06
2018-04-27T09:22:13.313Z,100383.70
2018-04-27T09:23:15.800Z,100379.99
2018-04-27T09:24:18.304Z,100377.81
2018-04-27T09:25:20.813Z,100377.25
2018-04-27T09:26:23.300Z,100376.44
2018-04-27T09:27:25.806Z,100378.22
2018-04-27T09:28:28.292Z,100374.50
2018-04-27T09:29:30.812Z,100374.91
2018-04-27T09:30:33.330Z,100376.12
2018-04-27T09:31:35.842Z,100374.74
2018-04-27T09:32:38.341Z,100375.15
2018-04-27T09:33:40.814Z,100381.45
2018-04-27T09:34:43.311Z,100377.73
2018-04-27T09:35:45.822Z,100377.73
2018-04-27T09:36:48.314Z,100370.46
2018-04-27T09:37:50.790Z,100368.93
2018-04-27T09:38:53.320Z,100365.22
2018-04-27T09:39:55.810Z,100358.34
2018-04-27T09:40:58.388Z,100351.48
2018-04-27T09:42:00.827Z,100353.27
2018-04-27T09:43:03.294Z,100348.58
2018-04-27T09:44:05.784Z,100339.77
2018-04-27T09:45:08.294Z,100348.98
2018-04-27T09:46:10.770Z,100342.52
2018-04-27T09:47:13.276Z,100337.27
2018-04-27T09:48:15.764Z,100336.87
2018-04-27T09:49:18.242Z,100336.87
2018-04-27T09:50:20.781Z,100336.30
2018-04-27T09:51:23.252Z,100349.06
2018-04-27T09:52:25.758Z,100347.12
2018-04-27T09:53:28.253Z,100345.34
2018-04-27T09:54:30.738Z,100341.23
2018-04-27T09:55:33.234Z,100341.63
2018-04-27T09:56:35.729Z,100337.52
2018-04-27T09:57:38.217Z,100330.65
2018-04-27T09:58:40.705Z,100329.11
2018-04-27T09:59:43.197Z,100324.99
2018-04-27T10:00:45.685Z,100318.13
2018-04-27T10:01:48.195Z,100321.28
2018-04-27T10:02:50.678Z,100316.59
2018-04-27T10:03:53.160Z,100313.45
2018-04-27T10:04:55.662Z,100308.36
2018-04-27T10:05:58.169Z,100308.76
2018-04-27T10:07:00.682Z,100302.86
2018-04-27T10:08:03.176Z,100304.23
2018-04-27T10:09:05.676Z,100296.41
2018-04-27T10:10:08.158Z,100299.15
2018-04-27T10:11:10.679Z,100291.15
2018-04-27T10:12:13.187Z,100295.67
2018-04-27T10:13:15.659Z,100293.89
2018-04-27T10:14:18.144Z,100291.95
2018-04-27T10:15:20.641Z,100284.53
2018-04-27T10:16:23.165Z,100287.27
2018-04-27T10:17:25.671Z,100286.70
2018-04-27T10:18:28.164Z,100285.73
2018-04-27T10:19:31.504Z,100288.08
2018-04-27T10:20:34.091Z,100280.81
2018-04-27T10:21:36.603Z,100288.88
2018-04-27T10:22:39.117Z,100278.88
2018-04-27T10:23:41.617Z,100273.78
2018-04-27T10:24:44.096Z,100268.70
2018-04-27T10:25:46.659Z,100266.52
2018-04-27T10:26:49.165Z,100266.91
2018-04-27T10:27:51.683Z,100259.08
2018-04-27T10:28:54.177Z,100261.42
2018-04-27T10:29:56.675Z,100256.73
2018-04-27T10:30:59.164Z,100259.48
2018-04-27T10:32:01.672Z,100263.07
2018-04-27T10:33:04.193Z,100256.20
2018-04-27T10:34:06.687Z,100260.72
2018-04-27T10:35:09.178Z,100263.71
2018-04-27T10:36:11.725Z,100259.59
2018-04-27T10:37:14.212Z,100252.16
2018-04-27T10:38:16.700Z,100261.37
2018-04-27T10:39:19.190Z,100261.94
2018-04-27T10:40:21.662Z,100259.99
2018-04-27T10:41:24.148Z,100261.77
2018-04-27T10:42:26.648Z,100261.37
2018-04-27T10:43:29.129Z,100263.31
2018-04-27T10:44:31.613Z,100258.22
2018-04-27T10:45:34.173Z,100255.88
2018-04-27T10:46:36.734Z,100251.92
2018-04-27T10:47:39.238Z,100259.59
2018-04-27T10:48:41.748Z,100261.37
2018-04-27T10:49:44.237Z,100256.28
2018-04-27T10:50:46.706Z,100261.77
2018-04-27T10:51:49.243Z,100259.03
2018-04-27T10:52:51.738Z,100252.97
2018-04-27T10:53:54.215Z,100247.47
2018-04-27T10:54:56.804Z,100254.09
2018-04-27T10:55:59.369Z,100243.69
2018-04-27T10:57:01.921Z,100242.14
2018-04-27T10:58:04.395Z,100233.91
2018-04-27T10:59:06.949Z,100234.71
2018-04-27T11:00:09.501Z,100232.13
2018-04-27T11:01:12.064Z,100232.13
2018-04-27T11:02:14.564Z,100226.23
2018-04-27T11:03:17.165Z,100225.10
2018-04-27T11:04:19.593Z,100220.02
2018-04-27T11:05:22.108Z,100222.76
2018-04-27T11:06:24.659Z,100220.82
2018-04-27T11:07:27.169Z,100226.08
2018-04-27T11:08:29.677Z,100222.19
2018-04-27T11:09:32.151Z,100214.76
2018-04-27T11:10:34.632Z,100216.30
2018-04-27T11:11:37.141Z,100221.22
2018-04-27T11:12:39.633Z,100213.15
2018-04-27T11:13:42.121Z,100215.73
2018-04-27T11:14:44.600Z,100210.23
2018-04-27T11:15:47.085Z,100212.17
2018-04-27T11:16:49.735Z,100211.77
2018-04-27T11:17:52.096Z,100215.73
2018-04-27T11:18:54.566Z,100207.66
2018-04-27T11:19:57.081Z,100209.43
2018-04-27T11:20:59.560Z,100214.52
2018-04-27T11:22:02.063Z,100203.53
2018-04-27T11:23:04.561Z,100207.09
2018-04-27T11:24:07.152Z,100203.94
2018-04-27T11:25:09.645Z,100197.48
2018-04-27T11:26:12.135Z,100192.55
2018-04-27T11:27:14.736Z,100199.41
2018-04-27T11:28:17.221Z,100199.82
2018-04-27T11:29:19.754Z,100192.95
2018-04-27T11:30:22.266Z,100202.97
2018-04-27T11:31:24.775Z,100202.23
2018-04-27T11:32:27.280Z,100199.49
2018-04-27T11:33:29.787Z,100203.20
2018-04-27T11:34:32.285Z,100198.52
2018-04-27T11:35:34.754Z,100195.38
2018-04-27T11:36:37.222Z,100190.28
2018-04-27T11:37:39.708Z,100191.25
2018-04-27T11:38:42.191Z,100189.31
2018-04-27T11:39:44.692Z,100181.07
2018-04-27T11:40:47.184Z,100186.16
2018-04-27T11:41:49.669Z,100185.77
2018-04-27T11:42:52.183Z,100174.20
2018-04-27T11:43:54.674Z,100170.09
2018-04-27T11:44:57.146Z,100168.72
2018-04-27T11:45:59.652Z,100160.48
2018-04-27T11:47:02.168Z,100158.13
2018-04-27T11:48:04.677Z,100152.23
2018-04-27T11:49:07.189Z,100152.23
2018-04-27T11:50:09.680Z,100147.48
2018-04-27T11:51:12.188Z,100147.95
2018-04-27T11:52:14.695Z,100146.75
2018-04-27T11:53:17.230Z,100144.41
2018-04-27T11:54:19.713Z,100146.58
2018-04-27T11:55:22.219Z,100139.31